Time;durP1;ratioP1;P1;durP2;ratioP2;P2;SDS_P1;SDS_P2;PMS_P1;PMS_P2;Temp;Humidity;BMP_temperature;BMP_pressure;BME280_temperature;BME280_humidity;BME280_pressure;Samples;Min_cycle;Max_cycle;Signal;HPM_P1;HPM_P2
2023/10/06 00:02:58;;;;;;;7.05;2.53;;;14.50;99.90;;;;;;5072768;28;20048;-76
2023/10/06 00:05:24;;;;;;;9.02;2.95;;;14.50;99.90;;;;;;5054784;28;20040;-77
2023/10/06 00:07:53;;;;;;;8.60;2.92;;;14.50;99.90;;;;;;5072866;28;20036;-76
2023/10/06 00:10:20;;;;;;;9.25;3.25;;;14.50;99.90;;;;;;5054929;28;20040;-76
2023/10/06 00:12:54;;;;;;;8.75;3.03;;;14.50;99.90;;;;;;5070176;28;20036;-76
2023/10/06 00:15:26;;;;;;;10.23;3.58;;;14.50;99.90;;;;;;5055622;28;20047;-76
2023/10/06 00:18:00;;;;;;;9.60;3.05;;;14.50;99.90;;;;;;5055417;28;20040;-76
2023/10/06 00:20:34;;;;;;;9.38;3.15;;;14.50;99.90;;;;;;5064072;28;20051;-77
2023/10/06 00:23:05;;;;;;;9.65;2.85;;;14.50;99.90;;;;;;5086202;28;20135;-76
2023/10/06 00:25:35;;;;;;;7.88;2.75;;;14.50;99.90;;;;;;5089318;28;20044;-77
2023/10/06 00:28:03;;;;;;;10.23;3.00;;;14.50;99.90;;;;;;5089257;28;20128;-77
2023/10/06 00:30:28;;;;;;;9.55;2.88;;;14.40;99.90;;;;;;5088426;28;20118;-77
2023/10/06 00:32:55;;;;;;;8.65;3.15;;;14.50;99.90;;;;;;5072316;28;20033;-76
2023/10/06 00:35:30;;;;;;;9.65;2.92;;;14.50;99.90;;;;;;5066499;28;20048;-77
2023/10/06 00:37:58;;;;;;;9.43;2.72;;;14.50;99.90;;;;;;5055729;28;20550;-76
2023/10/06 00:40:25;;;;;;;9.57;3.17;;;14.50;99.90;;;;;;5071284;28;20044;-76
2023/10/06 00:42:53;;;;;;;9.60;3.20;;;14.50;99.90;;;;;;5055582;28;20048;-76
2023/10/06 00:45:19;;;;;;;9.88;3.53;;;14.40;99.90;;;;;;5054445;28;20556;-76
2023/10/06 00:47:44;;;;;;;9.05;3.22;;;14.40;99.90;;;;;;5055380;28;20178;-76
2023/10/06 00:50:12;;;;;;;11.02;3.60;;;14.40;99.90;;;;;;5054949;28;20504;-76
2023/10/06 00:52:39;;;;;;;10.85;3.35;;;14.40;99.90;;;;;;5055365;28;20036;-76
2023/10/06 00:55:11;;;;;;;10.60;3.88;;;14.40;99.90;;;;;;5070500;28;20484;-76
2023/10/06 00:57:38;;;;;;;12.57;3.38;;;14.40;99.90;;;;;;5054870;28;20051;-76
2023/10/06 01:00:21;;;;;;;14.05;4.35;;;14.40;99.90;;;;;;5071093;28;20044;-76
2023/10/06 01:02:47;;;;;;;12.85;3.72;;;14.40;99.90;;;;;;5072235;28;20051;-76
2023/10/06 01:05:17;;;;;;;11.50;4.05;;;14.40;99.90;;;;;;5045990;28;20037;-76
2023/10/06 01:07:47;;;;;;;9.20;4.03;;;14.40;99.90;;;;;;5051651;28;20079;-76
2023/10/06 01:10:17;;;;;;;10.52;3.83;;;14.40;99.90;;;;;;5047631;28;20044;-76
2023/10/06 01:12:51;;;;;;;10.13;3.58;;;14.50;99.90;;;;;;5051908;28;20044;-76
2023/10/06 01:15:19;;;;;;;14.45;4.25;;;14.50;99.90;;;;;;5054345;28;20044;-76
2023/10/06 01:17:48;;;;;;;10.70;3.90;;;14.50;99.90;;;;;;5071813;28;20116;-76
2023/10/06 01:20:34;;;;;;;11.63;4.15;;;14.50;99.90;;;;;;5054558;28;20397;-77
2023/10/06 01:23:00;;;;;;;11.55;3.90;;;14.50;99.90;;;;;;5071248;28;20628;-76
2023/10/06 01:25:26;;;;;;;10.05;4.05;;;14.50;99.90;;;;;;5087227;28;20049;-77
2023/10/06 01:27:52;;;;;;;11.73;4.38;;;14.50;99.90;;;;;;5090037;28;20044;-76
2023/10/06 01:30:18;;;;;;;13.57;4.55;;;14.50;99.90;;;;;;5074790;28;20044;-77
2023/10/06 01:32:45;;;;;;;12.32;4.35;;;14.40;99.90;;;;;;5075776;28;20085;-76
2023/10/06 01:35:12;;;;;;;10.85;4.25;;;14.40;99.90;;;;;;5059056;28;20033;-76
2023/10/06 01:37:43;;;;;;;11.52;4.50;;;14.50;99.90;;;;;;5058778;28;20041;-76
2023/10/06 01:40:35;;;;;;;9.85;4.72;;;14.50;99.90;;;;;;5058182;28;20052;-76
2023/10/06 01:43:09;;;;;;;13.05;4.80;;;14.50;99.90;;;;;;5059005;28;20068;-76
2023/10/06 01:45:35;;;;;;;9.82;4.97;;;14.50;99.90;;;;;;5073668;28;20123;-76
2023/10/06 01:50:39;;;;;;;13.40;5.13;;;14.50;99.90;;;;;;5060950;28;20049;-76
2023/10/06 01:53:06;;;;;;;12.60;5.43;;;14.50;99.90;;;;;;5038780;28;20048;-76
2023/10/06 01:55:37;;;;;;;9.80;4.60;;;14.50;99.90;;;;;;5051693;28;20080;-77
2023/10/06 01:58:05;;;;;;;11.73;4.30;;;14.50;99.90;;;;;;5055657;28;20044;-76
2023/10/06 02:00:34;;;;;;;11.38;5.22;;;14.60;99.90;;;;;;5091209;28;20572;-76
2023/10/06 02:03:00;;;;;;;9.60;4.65;;;14.60;99.90;;;;;;5058830;28;20032;-76
2023/10/06 02:05:26;;;;;;;12.90;4.95;;;14.60;99.90;;;;;;5075318;28;20054;-76
2023/10/06 02:08:00;;;;;;;12.98;5.35;;;14.60;99.90;;;;;;5057607;28;20037;-76
2023/10/06 02:10:28;;;;;;;15.45;4.80;;;14.60;99.90;;;;;;5057468;28;20550;-76
2023/10/06 02:12:55;;;;;;;13.52;5.63;;;14.60;99.90;;;;;;5054927;28;20492;-76
2023/10/06 02:15:20;;;;;;;11.18;4.80;;;14.60;99.90;;;;;;5077398;28;20036;-76
2023/10/06 02:17:49;;;;;;;10.20;4.97;;;14.60;99.90;;;;;;5072938;28;20134;-76
2023/10/06 02:22:55;;;;;;;13.75;5.60;;;14.70;99.90;;;;;;5075108;28;20052;-76
2023/10/06 02:25:20;;;;;;;10.23;4.88;;;14.60;99.90;;;;;;5074712;28;20037;-76
2023/10/06 02:27:47;;;;;;;12.63;4.80;;;14.60;99.90;;;;;;5073571;28;20033;-76
2023/10/06 02:30:37;;;;;;;14.02;5.07;;;14.60;99.90;;;;;;5055868;28;20043;-76
2023/10/06 02:33:06;;;;;;;14.63;5.25;;;14.70;99.90;;;;;;5073961;28;20040;-77
2023/10/06 02:35:34;;;;;;;16.42;5.63;;;14.70;99.90;;;;;;5074576;28;20047;-76
2023/10/06 02:38:05;;;;;;;11.45;4.53;;;14.60;99.90;;;;;;5084739;28;20052;-76
2023/10/06 02:40:38;;;;;;;11.68;4.82;;;14.60;99.90;;;;;;5068707;28;20071;-77
2023/10/06 02:43:06;;;;;;;14.32;5.30;;;14.70;99.90;;;;;;5074479;28;20615;-76
2023/10/06 02:45:37;;;;;;;13.57;5.57;;;14.70;99.90;;;;;;5091238;28;20484;-76
2023/10/06 02:48:13;;;;;;;9.07;4.47;;;14.70;99.90;;;;;;5056687;28;20079;-76
2023/10/06 02:50:44;;;;;;;16.15;5.45;;;14.70;99.90;;;;;;5072651;28;20044;-77
2023/10/06 02:53:13;;;;;;;15.10;5.30;;;14.70;99.90;;;;;;5074324;28;20041;-77
2023/10/06 02:55:44;;;;;;;11.77;5.38;;;14.70;99.90;;;;;;5073808;28;20505;-76
2023/10/06 02:58:26;;;;;;;13.85;5.40;;;14.70;99.90;;;;;;5056577;28;20090;-76
2023/10/06 03:00:51;;;;;;;13.00;5.45;;;14.70;99.90;;;;;;5055970;28;20040;-77
2023/10/06 03:03:18;;;;;;;11.38;5.43;;;14.70;99.90;;;;;;5073417;28;20040;-76
2023/10/06 03:05:49;;;;;;;12.88;5.40;;;14.70;99.90;;;;;;5073122;28;20139;-76
2023/10/06 03:08:20;;;;;;;13.40;4.63;;;14.70;99.90;;;;;;5072853;28;20111;-76
2023/10/06 03:10:48;;;;;;;13.65;5.60;;;14.60;99.90;;;;;;5088700;28;20048;-76
2023/10/06 03:13:43;;;;;;;9.65;4.63;;;14.60;99.90;;;;;;5091092;28;20452;-76
2023/10/06 03:16:12;;;;;;;12.43;5.05;;;14.60;99.90;;;;;;5074110;28;20477;-76
2023/10/06 03:18:38;;;;;;;15.27;4.88;;;14.50;99.90;;;;;;5073550;28;20127;-76
2023/10/06 03:21:15;;;;;;;13.02;5.32;;;14.50;99.90;;;;;;5071594;28;20047;-76
2023/10/06 03:23:45;;;;;;;12.75;5.68;;;14.50;99.90;;;;;;5057054;28;20048;-76
2023/10/06 03:26:21;;;;;;;11.98;5.07;;;14.50;99.90;;;;;;5073671;28;20052;-76
2023/10/06 03:28:50;;;;;;;11.52;5.15;;;14.50;99.90;;;;;;5073483;28;20041;-76
2023/10/06 03:33:49;;;;;;;11.52;5.47;;;14.50;99.90;;;;;;5073745;28;20118;-76
2023/10/06 03:36:26;;;;;;;11.02;5.15;;;14.50;99.90;;;;;;5073501;28;20028;-76
2023/10/06 03:38:57;;;;;;;11.38;5.43;;;14.50;99.90;;;;;;5072632;28;20052;-76
2023/10/06 03:41:31;;;;;;;12.52;6.55;;;14.40;99.90;;;;;;5039963;28;20489;-76
2023/10/06 03:44:00;;;;;;;11.68;5.25;;;14.40;99.90;;;;;;5055936;28;20041;-76
2023/10/06 03:46:29;;;;;;;14.02;6.10;;;14.40;99.90;;;;;;5056528;28;20123;-76
2023/10/06 03:49:03;;;;;;;13.55;5.57;;;14.40;99.90;;;;;;5055643;28;20047;-76
2023/10/06 03:51:29;;;;;;;16.58;6.22;;;14.40;99.90;;;;;;5066944;28;20045;-76
2023/10/06 03:53:56;;;;;;;13.23;6.35;;;14.50;99.90;;;;;;5073370;28;20143;-76
2023/10/06 03:56:22;;;;;;;14.73;6.25;;;14.40;99.90;;;;;;5056284;28;20507;-76
2023/10/06 03:58:48;;;;;;;12.88;6.30;;;14.40;99.90;;;;;;5056343;28;20127;-76
2023/10/06 04:01:26;;;;;;;14.00;6.25;;;14.40;99.90;;;;;;5070826;28;20537;-77
2023/10/06 04:03:53;;;;;;;13.75;6.53;;;14.50;99.90;;;;;;5056276;28;20036;-76
2023/10/06 04:06:23;;;;;;;12.38;6.32;;;14.40;99.90;;;;;;5071995;28;20033;-77
2023/10/06 04:08:49;;;;;;;13.23;6.03;;;14.40;99.90;;;;;;5073004;28;20036;-77
2023/10/06 04:11:15;;;;;;;13.40;5.70;;;14.40;99.90;;;;;;5071048;28;20039;-77
2023/10/06 04:13:43;;;;;;;10.85;6.22;;;14.40;99.90;;;;;;5056262;28;20032;-77
2023/10/06 04:16:09;;;;;;;11.77;5.45;;;14.50;99.90;;;;;;5072598;28;20082;-77
2023/10/06 04:18:34;;;;;;;16.08;6.70;;;14.40;99.90;;;;;;5056203;28;20036;-77
2023/10/06 04:21:02;;;;;;;11.25;5.38;;;14.50;99.90;;;;;;5053914;28;20041;-76
2023/10/06 04:23:28;;;;;;;15.23;6.40;;;14.40;99.90;;;;;;5055947;28;20045;-76
2023/10/06 04:25:57;;;;;;;13.15;6.53;;;14.40;99.90;;;;;;5051278;28;20493;-76
2023/10/06 04:28:25;;;;;;;14.35;6.18;;;14.40;99.90;;;;;;5055701;28;20055;-76
2023/10/06 04:30:51;;;;;;;12.18;5.60;;;14.40;99.90;;;;;;5071785;28;20379;-78
2023/10/06 04:33:18;;;;;;;12.50;5.78;;;14.30;99.90;;;;;;5054820;28;20047;-77
2023/10/06 04:38:31;;;;;;;13.93;5.88;;;14.40;99.90;;;;;;5072214;28;20127;-77
2023/10/06 04:40:57;;;;;;;13.90;5.40;;;14.40;99.90;;;;;;5055061;28;20040;-77
2023/10/06 04:43:23;;;;;;;14.45;5.78;;;14.40;99.90;;;;;;5071336;28;20506;-77
2023/10/06 04:45:50;;;;;;;11.95;5.65;;;14.30;99.90;;;;;;5054760;28;20051;-76
2023/10/06 04:48:18;;;;;;;11.60;5.40;;;14.40;99.90;;;;;;5072094;28;20056;-77
2023/10/06 04:50:44;;;;;;;10.88;4.78;;;14.40;99.90;;;;;;5054788;28;20120;-77
2023/10/06 04:53:11;;;;;;;12.23;5.47;;;14.40;99.90;;;;;;5070912;28;20060;-77
2023/10/06 04:55:38;;;;;;;12.82;5.28;;;14.40;99.90;;;;;;5088813;28;20061;-76
2023/10/06 04:58:13;;;;;;;14.25;5.43;;;14.40;99.90;;;;;;5071937;28;20048;-76
2023/10/06 05:00:39;;;;;;;10.70;5.22;;;14.40;99.90;;;;;;5088007;28;20040;-76
2023/10/06 05:03:06;;;;;;;13.60;5.68;;;14.40;99.90;;;;;;5070555;28;20040;-76
2023/10/06 05:05:37;;;;;;;13.35;4.75;;;14.30;99.90;;;;;;5070999;28;20532;-77
2023/10/06 05:08:04;;;;;;;10.75;5.15;;;14.30;99.90;;;;;;5071779;28;20051;-77
2023/10/06 05:10:31;;;;;;;12.80;5.15;;;14.40;99.90;;;;;;5053828;28;20037;-77
2023/10/06 05:13:02;;;;;;;13.30;5.47;;;14.40;99.90;;;;;;5070574;28;20052;-77
2023/10/06 05:15:30;;;;;;;14.38;5.70;;;14.40;99.90;;;;;;5054658;28;20542;-77
2023/10/06 05:18:00;;;;;;;13.02;5.00;;;14.40;99.90;;;;;;5054363;28;20055;-76
2023/10/06 05:20:29;;;;;;;14.02;5.50;;;14.40;99.90;;;;;;5070727;28;20041;-76
2023/10/06 05:23:02;;;;;;;9.05;4.25;;;14.40;99.90;;;;;;5071643;28;20041;-76
2023/10/06 05:25:29;;;;;;;12.40;4.47;;;14.40;99.90;;;;;;5071438;28;20044;-77
2023/10/06 05:27:57;;;;;;;16.30;5.60;;;14.30;99.90;;;;;;5052015;28;20036;-77
2023/10/06 05:30:23;;;;;;;12.77;5.07;;;14.30;99.90;;;;;;5058959;28;21156;-77
2023/10/06 05:32:48;;;;;;;12.13;5.13;;;14.30;99.90;;;;;;5044620;28;20028;-77
2023/10/06 05:35:14;;;;;;;9.35;4.90;;;14.30;99.90;;;;;;5066627;28;20098;-76
2023/10/06 05:37:44;;;;;;;13.00;5.35;;;14.30;99.90;;;;;;5071409;28;20041;-76
2023/10/06 05:40:16;;;;;;;13.77;5.07;;;14.30;99.90;;;;;;5068743;28;20519;-77
2023/10/06 05:42:49;;;;;;;11.38;5.13;;;14.40;99.90;;;;;;5050636;28;20040;-77
2023/10/06 05:45:16;;;;;;;9.55;4.13;;;14.40;99.90;;;;;;5058052;28;20079;-76
2023/10/06 05:47:50;;;;;;;14.35;4.38;;;14.40;99.90;;;;;;5054768;28;20385;-77
2023/10/06 05:50:29;;;;;;;9.32;4.90;;;14.40;99.90;;;;;;5051762;28;20033;-77
2023/10/06 05:53:01;;;;;;;11.90;5.05;;;14.40;99.90;;;;;;5056140;28;20531;-76
2023/10/06 05:55:31;;;;;;;;;;;14.50;99.90;;;;;;5068836;28;20505;-77
2023/10/06 05:58:00;;;;;;;14.32;5.30;;;14.40;99.90;;;;;;5069498;28;19922;-77
2023/10/06 06:00:30;;;;;;;12.55;5.50;;;14.40;99.90;;;;;;5069964;28;20488;-77
2023/10/06 06:02:58;;;;;;;11.57;4.63;;;14.40;99.90;;;;;;5070234;28;20044;-77
2023/10/06 06:05:25;;;;;;;20.38;7.10;;;14.50;99.90;;;;;;5067574;28;20041;-77
2023/10/06 06:07:51;;;;;;;10.10;4.43;;;14.50;99.90;;;;;;5064692;28;20033;-77
2023/10/06 06:10:18;;;;;;;11.65;5.40;;;14.50;99.90;;;;;;5039587;28;20032;-77
2023/10/06 06:12:43;;;;;;;10.88;5.38;;;14.50;99.90;;;;;;5067535;28;20040;-77
2023/10/06 06:15:11;;;;;;;11.90;5.40;;;14.40;99.90;;;;;;5055913;28;20070;-77
2023/10/06 06:17:38;;;;;;;12.85;5.60;;;14.50;99.90;;;;;;5069441;28;20052;-77
2023/10/06 06:20:07;;;;;;;16.60;5.65;;;14.50;99.90;;;;;;5055473;28;20044;-77
2023/10/06 06:22:36;;;;;;;14.23;5.45;;;14.60;99.90;;;;;;5053498;28;20041;-77
2023/10/06 06:25:05;;;;;;;12.13;5.32;;;14.60;99.90;;;;;;5059143;28;20037;-77
2023/10/06 06:27:31;;;;;;;12.18;5.05;;;14.60;99.90;;;;;;5055622;28;20049;-77
2023/10/06 06:29:57;;;;;;;10.05;4.90;;;14.60;99.90;;;;;;5089959;28;20403;-77
2023/10/06 06:32:25;;;;;;;12.27;6.07;;;14.70;99.90;;;;;;5048704;28;20139;-77
2023/10/06 06:34:51;;;;;;;10.68;5.10;;;14.60;99.90;;;;;;5070494;28;20047;-87
2023/10/06 06:37:17;;;;;;;10.35;5.18;;;14.60;99.90;;;;;;5069915;28;20037;-85
2023/10/06 06:39:44;;;;;;;13.30;5.07;;;14.70;99.90;;;;;;5051294;28;20036;-85
2023/10/06 06:42:11;;;;;;;15.35;5.75;;;14.80;99.90;;;;;;5056727;28;20037;-83
2023/10/06 06:44:36;;;;;;;10.38;4.22;;;14.80;99.90;;;;;;5072639;28;20165;-85
2023/10/06 06:47:03;;;;;;;10.30;4.95;;;14.90;99.90;;;;;;5073951;28;20493;-86
2023/10/06 06:49:29;;;;;;;15.80;5.28;;;14.90;99.90;;;;;;5054931;28;20029;-86
2023/10/06 06:51:58;;;;;;;14.35;5.43;;;14.80;99.90;;;;;;5080139;28;20086;-76
2023/10/06 06:54:24;;;;;;;14.77;6.10;;;14.80;99.90;;;;;;5067602;28;20036;-81
2023/10/06 06:56:50;;;;;;;14.30;5.43;;;14.90;99.90;;;;;;5069898;28;20041;-80
2023/10/06 06:59:18;;;;;;;15.82;5.97;;;14.90;99.90;;;;;;5059652;28;20455;-81
2023/10/06 07:01:44;;;;;;;15.38;5.32;;;14.90;99.90;;;;;;5065689;28;20075;-80
2023/10/06 07:04:12;;;;;;;12.52;5.43;;;14.90;99.90;;;;;;5054400;28;20075;-82
2023/10/06 07:06:37;;;;;;;16.45;6.53;;;15.00;99.90;;;;;;5054490;28;20135;-82
2023/10/06 07:09:12;;;;;;;12.23;5.45;;;14.90;99.90;;;;;;5072282;28;20123;-82
2023/10/06 07:11:42;;;;;;;15.98;6.00;;;15.00;99.90;;;;;;5054604;28;20063;-81
2023/10/06 07:14:09;;;;;;;17.10;5.63;;;15.00;99.90;;;;;;5056477;28;20037;-81
2023/10/06 07:16:35;;;;;;;13.25;5.70;;;15.00;99.90;;;;;;5053359;28;20036;-82
2023/10/06 07:19:01;;;;;;;14.88;5.32;;;15.00;99.90;;;;;;5061730;28;20044;-82
2023/10/06 07:21:28;;;;;;;11.15;5.70;;;15.00;99.90;;;;;;5055948;28;20507;-81
2023/10/06 07:23:56;;;;;;;14.95;5.57;;;15.00;99.90;;;;;;5055009;28;20040;-82
2023/10/06 07:26:22;;;;;;;10.52;5.13;;;15.00;99.90;;;;;;5053322;28;20059;-81
2023/10/06 07:28:52;;;;;;;9.93;4.88;;;15.00;99.90;;;;;;5061141;28;20119;-79
2023/10/06 07:31:17;;;;;;;12.48;5.13;;;15.00;99.90;;;;;;5051142;28;20028;-82
2023/10/06 07:33:52;;;;;;;17.35;5.68;;;15.10;99.90;;;;;;5055953;28;20040;-79
2023/10/06 07:36:17;;;;;;;11.80;5.15;;;15.10;99.90;;;;;;5055316;28;20036;-79
2023/10/06 07:38:44;;;;;;;11.35;5.25;;;15.00;99.90;;;;;;5055183;28;20161;-79
2023/10/06 07:41:23;;;;;;;12.75;5.82;;;15.00;99.90;;;;;;5055717;28;20049;-78
2023/10/06 07:43:49;;;;;;;13.23;5.82;;;15.00;99.90;;;;;;5053919;28;20566;-77
2023/10/06 07:46:16;;;;;;;11.48;5.40;;;15.00;99.90;;;;;;5069197;28;20036;-78
2023/10/06 07:48:45;;;;;;;14.20;6.05;;;15.00;99.90;;;;;;5055038;28;20101;-78
2023/10/06 07:51:16;;;;;;;12.00;5.70;;;15.10;99.90;;;;;;5063384;28;20040;-84
2023/10/06 07:53:43;;;;;;;12.90;6.13;;;15.10;99.90;;;;;;5070837;28;20559;-83
2023/10/06 07:56:09;;;;;;;12.52;5.60;;;15.20;99.90;;;;;;5071777;28;20094;-86
2023/10/06 07:58:41;;;;;;;14.38;6.10;;;15.30;99.90;;;;;;5056030;28;20463;-86
2023/10/06 08:01:12;;;;;;;13.82;6.32;;;15.20;99.90;;;;;;5072144;28;20404;-83
2023/10/06 08:03:39;;;;;;;13.85;5.80;;;15.20;99.90;;;;;;5072786;28;20040;-83
2023/10/06 08:06:10;;;;;;;14.80;6.57;;;15.30;99.90;;;;;;5088791;28;20497;-79
2023/10/06 08:08:37;;;;;;;11.60;6.20;;;15.20;99.90;;;;;;5070849;28;20063;-85
2023/10/06 08:11:05;;;;;;;15.07;6.32;;;15.20;99.90;;;;;;5070920;28;20075;-84
2023/10/06 08:13:31;;;;;;;14.35;5.68;;;15.10;99.90;;;;;;5055504;28;20128;-84
2023/10/06 08:15:58;;;;;;;14.13;5.50;;;15.20;99.90;;;;;;5055263;28;20119;-84
2023/10/06 08:18:25;;;;;;;14.18;6.10;;;15.20;99.90;;;;;;5055172;28;20048;-83
2023/10/06 08:20:53;;;;;;;12.93;6.20;;;15.20;99.90;;;;;;5054109;28;20072;-84
2023/10/06 08:23:19;;;;;;;14.77;6.00;;;15.20;99.90;;;;;;5054772;28;20567;-84
2023/10/06 08:25:46;;;;;;;15.20;6.53;;;15.20;99.90;;;;;;5071019;28;20041;-84
2023/10/06 08:28:12;;;;;;;18.02;7.78;;;15.20;99.90;;;;;;5055326;28;20576;-84
2023/10/06 08:30:38;;;;;;;14.50;6.28;;;15.20;99.90;;;;;;5054423;28;20443;-84
2023/10/06 08:33:08;;;;;;;12.90;5.95;;;15.30;99.90;;;;;;5054162;28;20094;-84
2023/10/06 08:35:36;;;;;;;13.57;6.63;;;15.30;99.90;;;;;;5071830;28;20040;-83
2023/10/06 08:38:02;;;;;;;15.55;6.88;;;15.40;99.90;;;;;;5054870;28;20036;-84
2023/10/06 08:40:30;;;;;;;14.88;6.70;;;15.40;99.90;;;;;;5070666;28;20040;-85
2023/10/06 08:42:56;;;;;;;12.20;6.00;;;15.50;99.90;;;;;;5052197;28;20036;-85
2023/10/06 08:45:31;;;;;;;14.85;6.03;;;15.50;99.90;;;;;;5065466;28;20103;-85
2023/10/06 08:47:58;;;;;;;11.77;6.25;;;15.40;99.90;;;;;;5068919;28;20366;-85
2023/10/06 08:50:29;;;;;;;15.07;6.20;;;15.60;99.90;;;;;;5085529;28;21307;-85
2023/10/06 08:52:56;;;;;;;15.07;7.43;;;15.60;99.90;;;;;;5057163;28;20029;-85
2023/10/06 08:55:30;;;;;;;12.80;5.90;;;15.70;99.90;;;;;;5071037;28;20048;-85
2023/10/06 08:57:58;;;;;;;14.90;6.25;;;15.80;99.90;;;;;;5055366;28;20041;-85
2023/10/06 09:00:25;;;;;;;10.52;5.53;;;15.70;99.90;;;;;;5088671;28;20040;-84
2023/10/06 09:02:53;;;;;;;15.80;5.35;;;15.90;99.90;;;;;;5069595;28;20529;-75
2023/10/06 09:05:19;;;;;;;15.68;7.45;;;15.90;99.90;;;;;;5070848;28;20123;-83
2023/10/06 09:07:58;;;;;;;13.18;6.40;;;16.00;99.90;;;;;;5070894;28;20047;-83
2023/10/06 09:10:24;;;;;;;13.23;5.63;;;15.90;99.90;;;;;;5054913;28;20123;-82
2023/10/06 09:13:04;;;;;;;12.70;5.82;;;16.00;99.90;;;;;;5071386;28;20127;-81
2023/10/06 09:15:30;;;;;;;13.32;5.45;;;15.90;99.90;;;;;;5069205;28;20488;-80
2023/10/06 09:17:58;;;;;;;15.38;6.60;;;16.00;99.90;;;;;;5072061;28;20063;-80
2023/10/06 09:20:37;;;;;;;13.18;5.38;;;16.00;99.90;;;;;;5071096;28;20071;-80
2023/10/06 09:23:04;;;;;;;12.13;5.95;;;16.10;99.90;;;;;;5054363;28;20044;-80
2023/10/06 09:25:47;;;;;;;14.38;6.68;;;16.10;99.90;;;;;;5052250;28;20040;-79
2023/10/06 09:28:14;;;;;;;16.48;5.97;;;16.20;99.90;;;;;;5054488;28;20095;-80
2023/10/06 09:30:56;;;;;;;18.13;6.28;;;16.20;99.90;;;;;;5069766;28;20040;-83
2023/10/06 09:33:43;;;;;;;14.43;6.43;;;16.30;99.90;;;;;;5053513;28;20121;-84
2023/10/06 09:36:28;;;;;;;13.32;5.55;;;16.40;99.90;;;;;;5086264;28;20074;-83
2023/10/06 09:39:00;;;;;;;8.18;4.55;;;16.40;99.90;;;;;;5071150;28;20040;-84
2023/10/06 09:41:34;;;;;;;14.73;4.53;;;16.50;99.90;;;;;;5071442;28;20097;-85
2023/10/06 09:44:05;;;;;;;13.90;6.35;;;16.50;99.90;;;;;;5053923;28;20500;-84
2023/10/06 09:46:35;;;;;;;12.73;5.28;;;16.60;99.90;;;;;;5042784;28;20497;-83
2023/10/06 09:49:05;;;;;;;13.13;5.35;;;16.70;99.90;;;;;;5047167;28;20123;-83
2023/10/06 09:51:33;;;;;;;12.23;5.45;;;16.60;99.90;;;;;;5076023;28;20415;-84
2023/10/06 09:54:00;;;;;;;13.63;5.65;;;16.60;99.90;;;;;;5058069;28;20475;-83
2023/10/06 09:56:27;;;;;;;14.02;4.45;;;16.60;99.90;;;;;;5056534;28;20109;-83
2023/10/06 09:58:54;;;;;;;13.77;5.32;;;16.70;99.90;;;;;;5051137;28;20048;-84
2023/10/06 10:01:24;;;;;;;12.48;5.40;;;16.80;99.90;;;;;;5039076;28;20041;-84
2023/10/06 10:03:54;;;;;;;11.35;5.28;;;16.70;99.90;;;;;;5050449;28;20040;-83
2023/10/06 10:06:21;;;;;;;11.73;4.70;;;16.90;99.90;;;;;;5053152;28;20127;-83
2023/10/06 10:08:47;;;;;;;12.57;4.75;;;16.90;99.90;;;;;;5065640;28;20051;-84
2023/10/06 10:11:28;;;;;;;12.85;5.05;;;17.00;99.90;;;;;;5074553;28;20032;-84
2023/10/06 10:14:41;;;;;;;12.13;4.57;;;17.00;99.90;;;;;;5075311;28;20036;-84
2023/10/06 10:17:13;;;;;;;14.52;4.93;;;17.20;99.90;;;;;;5067971;28;20527;-83
2023/10/06 10:19:43;;;;;;;;;;;17.20;99.90;;;;;;5074808;28;20395;-78
2023/10/06 10:22:13;;;;;;;11.98;4.57;;;17.30;99.90;;;;;;5058300;28;19927;-78
2023/10/06 10:24:39;;;;;;;12.90;4.05;;;17.20;99.90;;;;;;5074072;28;20040;-78
2023/10/06 10:27:12;;;;;;;17.05;5.03;;;17.20;99.90;;;;;;5051573;28;20036;-78
2023/10/06 10:29:40;;;;;;;10.13;3.63;;;17.20;99.90;;;;;;5040342;28;20062;-78
2023/10/06 10:32:22;;;;;;;12.63;4.20;;;17.30;99.90;;;;;;5068349;28;20036;-78
2023/10/06 10:35:13;;;;;;;;;;;17.40;99.90;;;;;;5053447;28;20087;-78
2023/10/06 10:37:52;;;;;;;10.45;4.20;;;17.30;99.90;;;;;;5084360;28;19920;-78
2023/10/06 10:40:46;;;;;;;11.00;4.50;;;17.30;99.90;;;;;;5070566;28;20078;-78
2023/10/06 10:43:14;;;;;;;9.90;4.38;;;17.30;99.90;;;;;;5048788;28;20056;-78
2023/10/06 10:45:44;;;;;;;12.65;5.05;;;17.40;99.90;;;;;;5040612;28;20079;-78
2023/10/06 10:48:15;;;;;;;13.63;4.28;;;17.40;99.90;;;;;;5057671;28;20048;-78
2023/10/06 10:50:52;;;;;;;14.07;4.43;;;17.50;99.90;;;;;;5057058;28;20067;-78
2023/10/06 10:53:20;;;;;;;12.25;3.88;;;17.60;99.90;;;;;;5073684;28;20045;-78
2023/10/06 10:55:47;;;;;;;12.40;4.78;;;17.60;99.90;;;;;;5069507;28;21856;-78
2023/10/06 10:58:41;;;;;;;10.10;3.70;;;17.70;99.90;;;;;;5084776;28;20120;-84
2023/10/06 11:01:24;;;;;;;11.43;4.28;;;17.80;99.90;;;;;;5045967;28;20048;-78
2023/10/06 11:06:45;;;;;;;12.75;3.45;;;17.80;99.90;;;;;;5072434;28;20056;-78
2023/10/06 11:09:28;;;;;;;13.50;4.10;;;17.80;99.90;;;;;;5057228;28;20051;-77
2023/10/06 11:11:56;;;;;;;12.52;3.88;;;17.90;99.90;;;;;;5056388;28;20036;-77
2023/10/06 11:14:23;;;;;;;9.48;3.60;;;17.90;99.90;;;;;;5050982;28;20049;-77
2023/10/06 11:16:49;;;;;;;13.55;4.57;;;17.80;99.90;;;;;;5055994;28;20040;-77
2023/10/06 11:19:16;;;;;;;10.52;3.50;;;17.80;99.90;;;;;;5069937;28;20040;-77
2023/10/06 11:21:48;;;;;;;11.60;3.38;;;18.00;99.90;;;;;;5072047;28;20051;-77
2023/10/06 11:24:25;;;;;;;13.88;2.90;;;18.00;99.90;;;;;;5051057;28;20044;-77
2023/10/06 11:26:51;;;;;;;9.93;3.17;;;18.00;99.90;;;;;;5073074;28;20044;-77
2023/10/06 11:29:30;;;;;;;12.70;3.33;;;17.90;99.90;;;;;;5071193;28;20047;-77
2023/10/06 11:31:57;;;;;;;14.55;4.53;;;17.80;99.90;;;;;;5073578;28;20097;-77
2023/10/06 11:34:24;;;;;;;13.23;3.42;;;17.90;99.90;;;;;;5050775;28;20481;-77
2023/10/06 11:36:53;;;;;;;10.52;3.30;;;17.80;99.90;;;;;;5073136;28;20488;-76
2023/10/06 11:39:20;;;;;;;11.18;3.42;;;18.00;99.90;;;;;;5054059;28;20183;-77
2023/10/06 11:41:50;;;;;;;12.80;3.83;;;18.00;99.90;;;;;;5072752;28;20138;-76
2023/10/06 11:44:15;;;;;;;12.05;3.53;;;18.00;99.90;;;;;;5073379;28;20049;-77
2023/10/06 11:46:52;;;;;;;12.13;3.63;;;18.00;99.90;;;;;;5057091;28;20382;-77
2023/10/06 11:49:20;;;;;;;16.50;3.65;;;18.00;99.90;;;;;;5055553;28;20396;-77
2023/10/06 11:51:46;;;;;;;13.27;3.65;;;18.00;99.90;;;;;;5055687;28;20064;-77
2023/10/06 11:54:12;;;;;;;12.55;3.10;;;18.20;99.90;;;;;;5073206;28;20115;-77
2023/10/06 11:56:51;;;;;;;11.75;4.13;;;18.20;99.90;;;;;;5068839;28;20123;-77
2023/10/06 11:59:22;;;;;;;15.43;3.60;;;18.30;99.90;;;;;;5054693;28;20046;-77
2023/10/06 12:01:48;;;;;;;13.57;4.30;;;18.30;99.90;;;;;;5055367;28;20089;-77
2023/10/06 12:04:32;;;;;;;12.98;3.45;;;18.10;99.90;;;;;;5067810;28;20040;-77
2023/10/06 12:07:01;;;;;;;10.15;3.17;;;18.20;99.90;;;;;;5064259;28;20464;-77
2023/10/06 12:09:30;;;;;;;10.45;3.40;;;18.10;99.90;;;;;;5056278;28;20378;-77
2023/10/06 12:12:01;;;;;;;14.52;3.88;;;18.20;99.90;;;;;;5073368;28;20485;-77
2023/10/06 12:14:27;;;;;;;14.25;3.78;;;18.10;99.90;;;;;;5054830;28;20587;-77
2023/10/06 12:16:54;;;;;;;11.07;3.58;;;18.20;99.90;;;;;;5071946;28;20040;-77
2023/10/06 12:19:21;;;;;;;11.98;3.42;;;18.20;99.90;;;;;;5049916;28;20465;-77
2023/10/06 12:21:47;;;;;;;9.63;3.20;;;18.10;99.90;;;;;;5054311;28;20036;-81
2023/10/06 12:24:13;;;;;;;11.90;2.92;;;18.20;99.90;;;;;;5067182;28;20029;-82
2023/10/06 12:26:39;;;;;;;13.48;3.53;;;18.20;99.90;;;;;;5066377;28;20051;-81
2023/10/06 12:29:06;;;;;;;11.15;3.30;;;18.30;99.90;;;;;;5051954;28;20107;-81
2023/10/06 12:31:32;;;;;;;13.48;3.35;;;18.30;99.90;;;;;;5052596;28;20044;-81
2023/10/06 12:34:03;;;;;;;14.57;3.75;;;18.40;99.90;;;;;;5051918;28;20041;-81
2023/10/06 12:36:28;;;;;;;15.20;3.10;;;18.60;99.90;;;;;;5043699;28;20197;-81
2023/10/06 12:38:54;;;;;;;11.90;3.10;;;18.60;99.90;;;;;;5072437;28;20480;-82
2023/10/06 12:41:20;;;;;;;14.20;4.13;;;18.60;99.90;;;;;;5050832;28;20036;-82
2023/10/06 12:43:47;;;;;;;10.23;3.50;;;18.70;99.90;;;;;;5062176;28;20119;-81
2023/10/06 12:46:13;;;;;;;13.40;4.25;;;18.60;99.90;;;;;;5053744;28;20036;-80
2023/10/06 12:48:39;;;;;;;13.00;4.35;;;18.70;99.90;;;;;;5069586;28;20048;-77
2023/10/06 12:51:06;;;;;;;9.18;3.08;;;18.80;99.90;;;;;;5053890;28;20040;-76
2023/10/06 12:53:33;;;;;;;11.60;3.95;;;18.90;99.90;;;;;;5058687;28;20408;-77
2023/10/06 12:55:59;;;;;;;14.00;4.43;;;18.80;99.90;;;;;;5054116;28;20052;-77
2023/10/06 12:58:24;;;;;;;11.88;4.07;;;18.70;99.90;;;;;;5054958;28;20102;-77
2023/10/06 13:00:50;;;;;;;11.57;3.92;;;18.70;99.90;;;;;;5051021;28;20032;-77
2023/10/06 13:03:16;;;;;;;11.00;3.45;;;18.70;99.90;;;;;;5054758;28;20305;-77
2023/10/06 13:05:46;;;;;;;12.88;4.03;;;18.70;99.90;;;;;;5071375;28;20138;-77